Time;durP1;ratioP1;P1;durP2;ratioP2;P2;SDS_P1;SDS_P2;PMS_P1;PMS_P2;Temp;Humidity;BMP_temperature;BMP_pressure;BME280_temperature;BME280_humidity;BME280_pressure;Samples;Min_cycle;Max_cycle;Signal;HPM_P1;HPM_P2
2021/09/12 00:00:26;;;;;;;11.65;6.57;;;;;;;;;;5048499;28;20029;-57
2021/09/12 00:02:52;;;;;;;10.85;6.40;;;;;;;;;;5046965;28;20459;-57
2021/09/12 00:05:17;;;;;;;13.30;6.30;;;;;;;;;;5046672;28;20665;-57
2021/09/12 00:07:42;;;;;;;11.48;6.57;;;;;;;;;;5049881;28;20041;-57
2021/09/12 00:10:08;;;;;;;13.15;5.85;;;;;;;;;;5052385;28;20078;-57
2021/09/12 00:12:34;;;;;;;11.40;5.93;;;;;;;;;;5050022;28;20044;-57
2021/09/12 00:15:01;;;;;;;11.10;6.45;;;;;;;;;;5047045;28;20020;-57
2021/09/12 00:17:26;;;;;;;10.57;5.60;;;;;;;;;;5052244;28;20063;-57
2021/09/12 00:19:51;;;;;;;8.55;5.90;;;;;;;;;;5051494;28;20021;-57
2021/09/12 00:22:17;;;;;;;11.02;5.20;;;;;;;;;;5046901;28;20028;-57
2021/09/12 00:24:43;;;;;;;8.90;6.00;;;;;;;;;;5046955;28;20040;-57
2021/09/12 00:27:08;;;;;;;10.90;5.82;;;;;;;;;;5047053;28;20490;-57
2021/09/12 00:29:34;;;;;;;13.13;6.05;;;;;;;;;;5049291;28;20120;-56
2021/09/12 00:31:59;;;;;;;10.13;5.90;;;;;;;;;;5052378;28;20021;-56
2021/09/12 00:34:24;;;;;;;13.52;6.95;;;;;;;;;;5045166;28;20032;-58
2021/09/12 00:36:50;;;;;;;9.25;6.22;;;;;;;;;;5047185;28;20022;-56
2021/09/12 00:39:15;;;;;;;11.98;6.03;;;;;;;;;;5049136;28;20029;-57
2021/09/12 00:41:43;;;;;;;11.07;6.95;;;;;;;;;;5051076;28;20108;-56
2021/09/12 00:44:12;;;;;;;10.13;5.95;;;;;;;;;;5053978;28;20166;-57
2021/09/12 00:46:42;;;;;;;10.63;6.30;;;;;;;;;;5047755;28;20025;-57
2021/09/12 00:49:08;;;;;;;11.57;6.80;;;;;;;;;;5048753;28;20036;-56
2021/09/12 00:51:34;;;;;;;12.57;5.82;;;;;;;;;;5047369;28;20403;-56
2021/09/12 00:54:03;;;;;;;9.55;6.70;;;;;;;;;;5049109;28;20454;-58
2021/09/12 00:56:30;;;;;;;10.27;6.07;;;;;;;;;;5049683;28;20021;-57
2021/09/12 00:58:56;;;;;;;13.50;6.47;;;;;;;;;;5046138;28;20544;-58
2021/09/12 01:01:25;;;;;;;10.45;7.00;;;;;;;;;;5048808;28;20128;-57
2021/09/12 01:03:52;;;;;;;12.52;7.28;;;;;;;;;;5042511;28;20057;-58
2021/09/12 01:06:17;;;;;;;10.25;5.43;;;;;;;;;;5042664;28;20386;-57
2021/09/12 01:08:43;;;;;;;10.70;6.10;;;;;;;;;;5052257;28;20029;-57
2021/09/12 01:11:08;;;;;;;10.38;6.18;;;;;;;;;;5046526;28;20521;-58
2021/09/12 01:13:38;;;;;;;12.50;6.32;;;;;;;;;;5047975;28;20059;-57
2021/09/12 01:16:16;;;;;;;10.27;5.97;;;;;;;;;;5056345;28;20021;-58
2021/09/12 01:18:43;;;;;;;10.50;6.20;;;;;;;;;;5056435;28;20052;-57
2021/09/12 01:21:10;;;;;;;11.50;5.78;;;;;;;;;;5053246;28;20028;-58
2021/09/12 01:23:35;;;;;;;10.38;6.90;;;;;;;;;;5048239;28;20033;-57
2021/09/12 01:26:01;;;;;;;8.63;5.60;;;;;;;;;;5054131;28;20553;-57
2021/09/12 01:28:27;;;;;;;9.15;5.47;;;;;;;;;;5054696;28;20392;-57
2021/09/12 01:30:53;;;;;;;8.63;5.65;;;;;;;;;;5050245;28;20069;-57
2021/09/12 01:33:19;;;;;;;8.65;5.85;;;;;;;;;;5049780;28;20079;-57
2021/09/12 01:35:44;;;;;;;10.50;6.00;;;;;;;;;;5052853;28;20375;-57
2021/09/12 01:38:09;;;;;;;9.95;5.82;;;;;;;;;;5053573;28;20052;-58
2021/09/12 01:40:35;;;;;;;10.15;6.00;;;;;;;;;;5052718;28;20346;-56
2021/09/12 01:43:00;;;;;;;7.65;5.88;;;;;;;;;;5049071;28;20032;-57
2021/09/12 01:45:26;;;;;;;9.13;5.05;;;;;;;;;;5048755;28;20372;-57
2021/09/12 01:47:58;;;;;;;10.02;5.75;;;;;;;;;;5049090;28;20078;-57
2021/09/12 01:50:25;;;;;;;11.48;5.65;;;;;;;;;;5052521;28;20560;-57
2021/09/12 01:52:50;;;;;;;9.80;5.78;;;;;;;;;;5050971;28;20098;-57
2021/09/12 01:55:16;;;;;;;7.93;5.32;;;;;;;;;;5050981;28;20025;-57
2021/09/12 01:57:41;;;;;;;11.10;6.00;;;;;;;;;;5048040;28;20028;-57
2021/09/12 02:00:07;;;;;;;9.10;5.75;;;;;;;;;;5052914;28;20029;-58
2021/09/12 02:02:33;;;;;;;10.40;5.55;;;;;;;;;;5050325;28;20519;-57
2021/09/12 02:04:59;;;;;;;11.68;5.78;;;;;;;;;;5052869;28;20114;-57
2021/09/12 02:07:24;;;;;;;11.35;5.55;;;;;;;;;;5052971;28;20495;-57
2021/09/12 02:09:49;;;;;;;9.82;5.93;;;;;;;;;;5052355;28;20036;-57
2021/09/12 02:12:15;;;;;;;9.98;5.50;;;;;;;;;;5051898;28;20475;-57
2021/09/12 02:14:40;;;;;;;8.57;5.63;;;;;;;;;;5053943;28;20103;-57
2021/09/12 02:17:06;;;;;;;8.70;5.43;;;;;;;;;;5048063;28;20129;-58
2021/09/12 02:19:31;;;;;;;8.68;5.57;;;;;;;;;;5047358;28;20120;-57
2021/09/12 02:21:56;;;;;;;9.98;5.60;;;;;;;;;;5047591;28;20025;-57
2021/09/12 02:24:22;;;;;;;8.88;5.75;;;;;;;;;;5042621;28;20478;-57
2021/09/12 02:26:47;;;;;;;8.95;5.50;;;;;;;;;;5048358;28;20036;-57
2021/09/12 02:29:12;;;;;;;8.70;5.35;;;;;;;;;;5049131;28;20029;-57
2021/09/12 02:31:38;;;;;;;10.40;5.38;;;;;;;;;;5043889;28;20090;-57
2021/09/12 02:34:03;;;;;;;7.13;5.22;;;;;;;;;;5047461;28;20111;-59
2021/09/12 02:36:29;;;;;;;7.93;5.20;;;;;;;;;;5049371;28;20050;-57
2021/09/12 02:38:54;;;;;;;12.77;5.57;;;;;;;;;;5050500;28;20037;-57
2021/09/12 02:41:20;;;;;;;9.30;5.32;;;;;;;;;;5046724;28;20033;-57
2021/09/12 02:43:45;;;;;;;9.93;5.47;;;;;;;;;;5048857;28;20159;-57
2021/09/12 02:46:10;;;;;;;6.50;4.82;;;;;;;;;;5048004;28;20044;-57
2021/09/12 02:48:36;;;;;;;7.85;5.03;;;;;;;;;;5051175;28;20045;-57
2021/09/12 02:51:01;;;;;;;11.07;5.57;;;;;;;;;;5053005;28;20115;-57
2021/09/12 02:53:27;;;;;;;10.68;5.20;;;;;;;;;;5047117;28;20027;-57
2021/09/12 02:55:52;;;;;;;8.85;5.45;;;;;;;;;;5048520;28;20470;-57
2021/09/12 02:58:17;;;;;;;9.27;5.03;;;;;;;;;;5048756;28;20049;-57
2021/09/12 03:00:43;;;;;;;12.63;4.95;;;;;;;;;;5052880;28;20033;-57
2021/09/12 03:03:08;;;;;;;6.30;4.47;;;;;;;;;;5047985;28;20498;-57
2021/09/12 03:05:34;;;;;;;9.23;5.68;;;;;;;;;;5043066;28;20029;-57
2021/09/12 03:07:59;;;;;;;6.68;5.25;;;;;;;;;;5047386;28;20519;-57
2021/09/12 03:10:25;;;;;;;7.63;5.28;;;;;;;;;;5053803;28;20033;-57
2021/09/12 03:12:50;;;;;;;7.57;5.47;;;;;;;;;;5055177;28;20114;-57
2021/09/12 03:15:16;;;;;;;9.77;5.15;;;;;;;;;;5053552;28;20020;-57
2021/09/12 03:17:41;;;;;;;11.38;5.45;;;;;;;;;;5047031;28;20052;-57
2021/09/12 03:20:07;;;;;;;10.40;5.22;;;;;;;;;;5053031;28;20022;-57
2021/09/12 03:22:33;;;;;;;6.80;4.90;;;;;;;;;;5051474;28;20416;-57
2021/09/12 03:24:58;;;;;;;7.88;5.20;;;;;;;;;;5047616;28;20025;-57
2021/09/12 03:27:23;;;;;;;8.55;5.53;;;;;;;;;;5046424;28;20103;-57
2021/09/12 03:29:49;;;;;;;7.38;5.35;;;;;;;;;;5051428;28;20035;-57
2021/09/12 03:32:14;;;;;;;8.98;5.38;;;;;;;;;;5049352;28;20029;-57
2021/09/12 03:34:40;;;;;;;10.55;5.90;;;;;;;;;;5047308;28;20440;-56
2021/09/12 03:37:06;;;;;;;7.57;5.28;;;;;;;;;;5047816;28;20490;-57
2021/09/12 03:39:31;;;;;;;9.38;5.70;;;;;;;;;;5045149;28;20033;-57
2021/09/12 03:41:56;;;;;;;8.60;5.20;;;;;;;;;;5049114;28;20100;-57
2021/09/12 03:44:22;;;;;;;7.80;5.30;;;;;;;;;;5051840;28;20024;-57
2021/09/12 03:46:48;;;;;;;13.73;6.57;;;;;;;;;;5050901;28;20542;-57
2021/09/12 03:49:13;;;;;;;10.63;5.93;;;;;;;;;;5046033;28;20061;-58
2021/09/12 03:51:39;;;;;;;6.90;4.88;;;;;;;;;;5044312;28;20029;-57
2021/09/12 03:54:04;;;;;;;9.32;5.38;;;;;;;;;;5051021;28;20033;-57
2021/09/12 03:56:30;;;;;;;8.52;5.53;;;;;;;;;;5054136;28;20067;-57
2021/09/12 03:58:55;;;;;;;7.15;5.00;;;;;;;;;;5048505;28;20506;-56
2021/09/12 04:01:20;;;;;;;7.38;5.47;;;;;;;;;;5048060;28;20074;-57
2021/09/12 04:03:46;;;;;;;14.15;5.68;;;;;;;;;;5043885;28;20055;-57
2021/09/12 04:06:11;;;;;;;9.15;6.07;;;;;;;;;;5047981;28;20033;-57
2021/09/12 04:08:37;;;;;;;8.95;5.32;;;;;;;;;;5049007;28;20048;-57
2021/09/12 04:11:02;;;;;;;9.05;4.95;;;;;;;;;;5051220;28;20028;-57
2021/09/12 04:13:28;;;;;;;10.25;5.85;;;;;;;;;;5048533;28;20411;-57
2021/09/12 04:15:53;;;;;;;8.73;5.78;;;;;;;;;;5050890;28;20029;-57
2021/09/12 04:18:19;;;;;;;8.77;5.53;;;;;;;;;;5050647;28;20040;-57
2021/09/12 04:20:44;;;;;;;7.10;4.90;;;;;;;;;;5047098;28;20095;-57
2021/09/12 04:23:09;;;;;;;7.30;5.40;;;;;;;;;;5048218;28;20485;-57
2021/09/12 04:25:35;;;;;;;7.45;5.25;;;;;;;;;;5047591;28;20522;-57
2021/09/12 04:28:00;;;;;;;7.47;5.30;;;;;;;;;;5051639;28;20039;-57
2021/09/12 04:30:26;;;;;;;9.35;5.47;;;;;;;;;;5050647;28;20027;-57
2021/09/12 04:32:51;;;;;;;8.80;5.30;;;;;;;;;;5046636;28;20032;-57
2021/09/12 04:35:16;;;;;;;9.60;4.88;;;;;;;;;;5044989;28;20044;-57
2021/09/12 04:37:42;;;;;;;11.38;5.55;;;;;;;;;;5046347;28;20491;-56
2021/09/12 04:40:08;;;;;;;8.98;4.70;;;;;;;;;;5048809;28;20029;-56
2021/09/12 04:42:34;;;;;;;10.65;5.85;;;;;;;;;;5051234;28;20029;-56
2021/09/12 04:44:59;;;;;;;7.50;5.20;;;;;;;;;;5046898;28;20048;-56
2021/09/12 04:47:24;;;;;;;6.68;4.50;;;;;;;;;;5047056;28;20032;-56
2021/09/12 04:49:50;;;;;;;9.65;5.50;;;;;;;;;;5050193;28;20028;-56
2021/09/12 04:52:15;;;;;;;8.32;5.40;;;;;;;;;;5050409;28;20099;-57
2021/09/12 04:54:41;;;;;;;8.07;4.70;;;;;;;;;;5048756;28;20219;-56
2021/09/12 04:57:07;;;;;;;10.10;5.22;;;;;;;;;;5047921;28;20029;-57
2021/09/12 04:59:33;;;;;;;7.57;5.03;;;;;;;;;;5051528;28;20094;-56
2021/09/12 05:01:59;;;;;;;7.63;4.97;;;;;;;;;;5052773;28;20530;-56
2021/09/12 05:04:24;;;;;;;8.20;5.35;;;;;;;;;;5044771;28;20102;-58
2021/09/12 05:06:50;;;;;;;7.25;4.75;;;;;;;;;;5045915;28;20029;-56
2021/09/12 05:09:15;;;;;;;7.80;4.82;;;;;;;;;;5045883;28;20028;-56
2021/09/12 05:11:41;;;;;;;7.65;4.90;;;;;;;;;;5048764;28;20021;-56
2021/09/12 05:14:07;;;;;;;9.57;4.88;;;;;;;;;;5051467;28;20028;-56
2021/09/12 05:16:33;;;;;;;8.77;5.20;;;;;;;;;;5047981;28;20104;-56
2021/09/12 05:18:58;;;;;;;9.95;5.25;;;;;;;;;;5050935;28;20478;-56
2021/09/12 05:21:23;;;;;;;8.63;4.47;;;;;;;;;;5048652;28;20029;-56
2021/09/12 05:23:49;;;;;;;8.13;5.32;;;;;;;;;;5053542;28;20368;-56
2021/09/12 05:26:14;;;;;;;9.85;5.18;;;;;;;;;;5050674;28;20159;-56
2021/09/12 05:28:40;;;;;;;8.30;4.72;;;;;;;;;;5048754;28;20410;-56
2021/09/12 05:31:05;;;;;;;7.53;6.18;;;;;;;;;;5046030;28;20029;-57
2021/09/12 05:33:30;;;;;;;8.23;5.75;;;;;;;;;;5045425;28;20558;-57
2021/09/12 05:35:57;;;;;;;10.52;5.25;;;;;;;;;;5050400;28;20509;-57
2021/09/12 05:38:22;;;;;;;8.15;5.38;;;;;;;;;;5046282;28;20344;-57
2021/09/12 05:40:48;;;;;;;8.30;5.25;;;;;;;;;;5046344;28;20024;-57
2021/09/12 05:43:14;;;;;;;11.25;7.13;;;;;;;;;;5046082;28;20124;-57
2021/09/12 05:45:40;;;;;;;13.93;6.25;;;;;;;;;;5038706;28;20449;-57
2021/09/12 05:48:05;;;;;;;11.55;5.20;;;;;;;;;;5046754;28;20021;-57
2021/09/12 05:50:30;;;;;;;7.55;4.60;;;;;;;;;;5046390;28;20562;-57
2021/09/12 05:52:56;;;;;;;6.72;4.68;;;;;;;;;;5045510;28;20542;-57
2021/09/12 05:55:21;;;;;;;8.65;4.90;;;;;;;;;;5044818;28;20110;-57
2021/09/12 05:57:47;;;;;;;9.55;5.30;;;;;;;;;;5055127;28;20021;-57
2021/09/12 06:00:12;;;;;;;8.55;5.50;;;;;;;;;;5050806;28;20078;-57
2021/09/12 06:02:38;;;;;;;9.40;5.53;;;;;;;;;;5053091;28;20035;-57
2021/09/12 06:05:05;;;;;;;10.98;7.75;;;;;;;;;;5046642;28;20036;-57
2021/09/12 06:07:31;;;;;;;16.65;8.23;;;;;;;;;;5046789;28;20037;-57
2021/09/12 06:09:57;;;;;;;17.42;8.35;;;;;;;;;;5052770;28;20025;-57
2021/09/12 06:12:22;;;;;;;13.18;6.88;;;;;;;;;;5050947;28;20390;-56
2021/09/12 06:14:48;;;;;;;14.57;7.13;;;;;;;;;;5048812;28;20033;-56
2021/09/12 06:17:13;;;;;;;18.85;7.10;;;;;;;;;;5049670;28;20112;-57
2021/09/12 06:19:39;;;;;;;15.73;8.63;;;;;;;;;;5055481;28;20098;-56
2021/09/12 06:22:05;;;;;;;23.90;11.60;;;;;;;;;;5056372;28;20115;-56
2021/09/12 06:24:31;;;;;;;20.63;10.30;;;;;;;;;;5050422;28;20170;-56
2021/09/12 06:26:56;;;;;;;16.73;8.90;;;;;;;;;;5048136;28;20108;-55
2021/09/12 06:29:22;;;;;;;15.50;7.63;;;;;;;;;;5049835;28;20036;-57
2021/09/12 06:31:48;;;;;;;13.13;7.38;;;;;;;;;;5050712;28;20040;-57
2021/09/12 06:34:14;;;;;;;11.55;6.90;;;;;;;;;;5048758;28;20032;-57
2021/09/12 06:36:39;;;;;;;12.00;6.97;;;;;;;;;;5048884;28;20475;-56
2021/09/12 06:39:05;;;;;;;10.88;6.60;;;;;;;;;;5048987;28;20033;-58
2021/09/12 06:41:30;;;;;;;19.13;10.43;;;;;;;;;;5050767;28;20036;-57
2021/09/12 06:43:56;;;;;;;10.95;6.15;;;;;;;;;;5053878;28;20104;-57
2021/09/12 06:46:21;;;;;;;10.57;6.22;;;;;;;;;;5048783;28;20095;-57
2021/09/12 06:48:47;;;;;;;11.20;6.60;;;;;;;;;;5048487;28;20099;-56
2021/09/12 06:51:13;;;;;;;9.88;5.72;;;;;;;;;;5049137;28;20050;-57
2021/09/12 06:53:38;;;;;;;8.13;5.38;;;;;;;;;;5051215;28;20036;-57
2021/09/12 06:56:04;;;;;;;8.27;5.50;;;;;;;;;;5050756;28;20064;-58
2021/09/12 06:58:30;;;;;;;9.38;5.82;;;;;;;;;;5047840;28;20033;-56
2021/09/12 07:00:57;;;;;;;8.15;5.57;;;;;;;;;;5049877;28;20099;-57
2021/09/12 07:03:23;;;;;;;7.63;5.30;;;;;;;;;;5050732;28;20833;-57
2021/09/12 07:05:49;;;;;;;9.40;6.30;;;;;;;;;;5051471;28;20028;-57
2021/09/12 07:08:14;;;;;;;10.23;6.53;;;;;;;;;;5049078;28;20029;-55
2021/09/12 07:10:40;;;;;;;13.15;7.32;;;;;;;;;;5049860;28;20048;-56
2021/09/12 07:13:05;;;;;;;10.73;6.95;;;;;;;;;;5048327;28;20036;-57
2021/09/12 07:15:31;;;;;;;10.65;6.82;;;;;;;;;;5052921;28;20107;-56
2021/09/12 07:17:56;;;;;;;11.32;7.65;;;;;;;;;;5045590;28;20027;-57
2021/09/12 07:20:22;;;;;;;12.73;7.88;;;;;;;;;;5051939;28;20055;-56
2021/09/12 07:22:47;;;;;;;14.55;7.82;;;;;;;;;;5049957;28;20111;-56
2021/09/12 07:25:13;;;;;;;11.85;7.45;;;;;;;;;;5050433;28;20573;-57
2021/09/12 07:27:38;;;;;;;13.55;8.00;;;;;;;;;;5053636;28;20124;-57
2021/09/12 07:30:05;;;;;;;13.82;7.93;;;;;;;;;;5051093;28;20478;-59
2021/09/12 07:32:30;;;;;;;10.82;6.43;;;;;;;;;;5049364;28;20059;-57
2021/09/12 07:34:56;;;;;;;12.40;6.63;;;;;;;;;;5050061;28;20060;-57
2021/09/12 07:37:21;;;;;;;7.97;5.82;;;;;;;;;;5048753;28;20108;-57
2021/09/12 07:39:47;;;;;;;10.43;6.80;;;;;;;;;;5049430;28;20037;-57
2021/09/12 07:42:12;;;;;;;9.27;6.25;;;;;;;;;;5047060;28;20032;-57
2021/09/12 07:44:37;;;;;;;10.02;6.43;;;;;;;;;;5044327;28;20036;-56
2021/09/12 07:47:03;;;;;;;9.60;6.43;;;;;;;;;;5047744;28;20025;-57
2021/09/12 07:49:28;;;;;;;10.40;6.43;;;;;;;;;;5047404;28;20103;-57
2021/09/12 07:51:54;;;;;;;9.48;6.43;;;;;;;;;;5046894;28;20100;-57
2021/09/12 07:54:19;;;;;;;8.95;6.45;;;;;;;;;;5048727;28;20315;-57
2021/09/12 07:56:45;;;;;;;7.82;6.10;;;;;;;;;;5046800;28;20017;-57
2021/09/12 07:59:11;;;;;;;9.40;6.38;;;;;;;;;;5048254;28;20076;-57
2021/09/12 08:01:36;;;;;;;9.85;6.68;;;;;;;;;;5050385;28;20056;-57
2021/09/12 08:04:01;;;;;;;9.38;6.55;;;;;;;;;;5049248;28;20029;-57
2021/09/12 08:06:27;;;;;;;9.25;6.32;;;;;;;;;;5048587;28;20535;-57
2021/09/12 08:08:53;;;;;;;9.65;6.53;;;;;;;;;;5047098;28;20048;-57
2021/09/12 08:11:19;;;;;;;11.02;6.60;;;;;;;;;;5049238;28;20086;-58
2021/09/12 08:13:44;;;;;;;12.13;7.07;;;;;;;;;;5047825;28;20071;-57
2021/09/12 08:16:10;;;;;;;10.77;7.03;;;;;;;;;;5051126;28;20020;-57
2021/09/12 08:18:36;;;;;;;14.68;7.38;;;;;;;;;;5046831;28;20199;-57
2021/09/12 08:21:02;;;;;;;9.77;6.93;;;;;;;;;;5040732;28;20453;-57
2021/09/12 08:23:28;;;;;;;10.32;6.47;;;;;;;;;;5052400;28;20020;-57
2021/09/12 08:25:53;;;;;;;9.68;6.30;;;;;;;;;;5054850;28;20039;-57
2021/09/12 08:28:19;;;;;;;10.05;7.00;;;;;;;;;;5049706;28;20032;-58
2021/09/12 08:30:44;;;;;;;9.05;6.65;;;;;;;;;;5044506;28;20037;-57
2021/09/12 08:33:12;;;;;;;12.43;6.97;;;;;;;;;;5049005;28;20463;-57
2021/09/12 08:35:37;;;;;;;11.43;7.47;;;;;;;;;;5048219;28;20426;-57
2021/09/12 08:38:03;;;;;;;12.82;7.05;;;;;;;;;;5047619;28;20116;-57
2021/09/12 08:40:30;;;;;;;10.13;6.80;;;;;;;;;;5046051;28;20051;-57
2021/09/12 08:42:56;;;;;;;12.30;7.18;;;;;;;;;;5047308;28;20116;-56
2021/09/12 08:45:25;;;;;;;12.65;7.60;;;;;;;;;;5049715;28;20037;-57
2021/09/12 08:47:52;;;;;;;11.75;7.53;;;;;;;;;;5046651;28;20021;-57
2021/09/12 08:50:18;;;;;;;11.65;7.50;;;;;;;;;;5047615;28;20436;-57
2021/09/12 08:52:44;;;;;;;11.00;7.03;;;;;;;;;;5046943;28;20131;-57
2021/09/12 08:55:09;;;;;;;11.88;8.10;;;;;;;;;;5049857;28;20039;-58
2021/09/12 08:57:35;;;;;;;9.90;6.97;;;;;;;;;;5051064;28;20469;-56
2021/09/12 09:00:12;;;;;;;10.07;7.07;;;;;;;;;;5046299;28;20029;-56
2021/09/12 09:02:38;;;;;;;10.38;6.63;;;;;;;;;;5046270;28;20104;-58
2021/09/12 09:05:04;;;;;;;11.18;6.70;;;;;;;;;;5047669;28;20091;-57
2021/09/12 09:07:32;;;;;;;12.65;6.68;;;;;;;;;;5047929;28;20033;-57
2021/09/12 09:10:00;;;;;;;10.43;6.93;;;;;;;;;;5051045;28;20112;-57
2021/09/12 09:12:28;;;;;;;11.02;6.70;;;;;;;;;;5048304;28;20032;-58
2021/09/12 09:15:11;;;;;;;11.25;7.05;;;;;;;;;;5048210;28;20040;-57
2021/09/12 09:17:45;;;;;;;10.32;6.55;;;;;;;;;;5044699;28;20459;-57
2021/09/12 09:20:33;;;;;;;9.95;5.97;;;;;;;;;;5048138;28;20123;-57
2021/09/12 09:23:04;;;;;;;9.38;5.88;;;;;;;;;;5041363;28;20568;-57
2021/09/12 09:25:31;;;;;;;11.52;7.30;;;;;;;;;;5057413;28;20094;-57
2021/09/12 09:28:09;;;;;;;8.57;6.22;;;;;;;;;;5045668;28;20111;-57
2021/09/12 09:30:47;;;;;;;8.90;6.22;;;;;;;;;;5045971;28;20025;-57
2021/09/12 09:33:28;;;;;;;8.30;6.18;;;;;;;;;;5047916;28;20541;-57
2021/09/12 09:36:02;;;;;;;7.43;5.50;;;;;;;;;;5048848;28;20036;-57
2021/09/12 09:38:38;;;;;;;7.70;5.30;;;;;;;;;;5049919;28;20411;-57
2021/09/12 09:41:10;;;;;;;7.25;4.78;;;;;;;;;;5052526;28;20151;-58
2021/09/12 09:43:48;;;;;;;8.20;4.75;;;;;;;;;;5051110;28;20025;-57
2021/09/12 09:46:34;;;;;;;9.80;5.20;;;;;;;;;;5051823;28;20079;-57
2021/09/12 09:49:20;;;;;;;6.38;4.65;;;;;;;;;;5048618;28;20487;-57
2021/09/12 09:51:58;;;;;;;5.95;4.57;;;;;;;;;;5052192;28;20037;-57
2021/09/12 09:54:26;;;;;;;6.97;4.43;;;;;;;;;;5046134;28;20403;-58
2021/09/12 09:56:53;;;;;;;8.55;4.72;;;;;;;;;;5052581;28;20029;-57
2021/09/12 09:59:20;;;;;;;5.90;4.38;;;;;;;;;;5049839;28;20537;-57
2021/09/12 10:01:51;;;;;;;6.25;4.50;;;;;;;;;;5048779;28;20039;-57
2021/09/12 10:04:21;;;;;;;6.50;4.85;;;;;;;;;;5047617;28;20130;-57
2021/09/12 10:06:48;;;;;;;8.50;4.68;;;;;;;;;;5048332;28;20033;-58
2021/09/12 10:09:14;;;;;;;7.72;4.65;;;;;;;;;;5053641;28;20569;-57
2021/09/12 10:11:46;;;;;;;5.88;4.25;;;;;;;;;;5050722;28;20069;-58
2021/09/12 10:14:15;;;;;;;7.10;4.13;;;;;;;;;;5050222;28;20059;-58
2021/09/12 10:16:42;;;;;;;6.47;4.22;;;;;;;;;;5047880;28;20124;-57
2021/09/12 10:19:08;;;;;;;6.72;4.50;;;;;;;;;;5048658;28;20518;-58
2021/09/12 10:21:33;;;;;;;6.78;4.40;;;;;;;;;;5053582;28;20041;-58
2021/09/12 10:24:08;;;;;;;5.13;4.22;;;;;;;;;;5055485;28;20055;-58
2021/09/12 10:26:40;;;;;;;7.38;4.72;;;;;;;;;;5052549;28;20043;-58
2021/09/12 10:29:46;;;;;;;5.68;4.15;;;;;;;;;;5050444;28;20082;-58
2021/09/12 10:32:34;;;;;;;6.53;4.25;;;;;;;;;;5046682;28;20071;-58
2021/09/12 10:35:18;;;;;;;6.45;4.18;;;;;;;;;;5042375;28;20170;-57
2021/09/12 10:38:14;;;;;;;7.03;4.10;;;;;;;;;;5047829;28;20021;-57
2021/09/12 10:40:48;;;;;;;7.05;3.58;;;;;;;;;;5037611;28;20487;-57
2021/09/12 10:43:37;;;;;;;4.00;3.25;;;;;;;;;;5046223;28;20028;-58
2021/09/12 10:46:02;;;;;;;4.03;3.30;;;;;;;;;;5039951;28;20060;-58
2021/09/12 10:48:40;;;;;;;5.90;4.22;;;;;;;;;;5053946;28;20067;-58
2021/09/12 10:51:26;;;;;;;5.60;4.00;;;;;;;;;;5052016;28;20035;-58
2021/09/12 10:53:54;;;;;;;4.82;3.58;;;;;;;;;;5049157;28;20035;-56
2021/09/12 10:56:20;;;;;;;6.07;3.30;;;;;;;;;;5049587;28;20148;-57
2021/09/12 10:58:57;;;;;;;4.70;2.83;;;;;;;;;;5048795;28;20151;-57
2021/09/12 11:01:30;;;;;;;6.57;3.63;;;;;;;;;;5054614;28;20032;-57
2021/09/12 11:03:58;;;;;;;4.38;3.00;;;;;;;;;;5051765;28;20029;-57
2021/09/12 11:06:25;;;;;;;4.85;3.00;;;;;;;;;;5046395;28;20487;-57
2021/09/12 11:08:50;;;;;;;3.90;3.13;;;;;;;;;;5045173;28;20246;-57
2021/09/12 11:11:16;;;;;;;3.92;2.78;;;;;;;;;;5051287;28;20029;-57
2021/09/12 11:13:41;;;;;;;3.22;2.78;;;;;;;;;;5046955;28;20129;-57
2021/09/12 11:16:11;;;;;;;6.80;3.28;;;;;;;;;;5047208;28;20052;-58
2021/09/12 11:18:52;;;;;;;3.88;3.00;;;;;;;;;;5047573;28;20029;-58
2021/09/12 11:21:40;;;;;;;5.30;3.30;;;;;;;;;;5047494;28;20032;-58
2021/09/12 11:24:06;;;;;;;3.40;2.88;;;;;;;;;;5047382;28;20119;-58
2021/09/12 11:26:37;;;;;;;3.88;3.13;;;;;;;;;;5047981;28;20125;-58
2021/09/12 11:29:38;;;;;;;6.97;3.28;;;;;;;;;;5048660;28;20418;-58
2021/09/12 11:32:09;;;;;;;3.88;2.72;;;;;;;;;;5047129;28;20021;-59
2021/09/12 11:34:36;;;;;;;3.10;2.80;;;;;;;;;;5049157;28;20039;-58
2021/09/12 11:37:03;;;;;;;4.05;2.58;;;;;;;;;;5046739;28;20060;-59
2021/09/12 11:39:32;;;;;;;4.15;2.60;;;;;;;;;;5047137;28;20032;-59
2021/09/12 11:42:00;;;;;;;3.70;2.50;;;;;;;;;;5050321;28;20076;-59
2021/09/12 11:44:38;;;;;;;4.60;2.85;;;;;;;;;;5049479;28;20435;-59
2021/09/12 11:47:14;;;;;;;4.03;2.80;;;;;;;;;;5043903;28;20025;-59
2021/09/12 11:49:41;;;;;;;4.78;3.08;;;;;;;;;;5046475;28;20024;-59
2021/09/12 11:52:08;;;;;;;4.07;3.00;;;;;;;;;;5050100;28;20043;-59
2021/09/12 11:54:37;;;;;;;4.05;2.60;;;;;;;;;;5046112;28;20032;-59
2021/09/12 11:57:11;;;;;;;5.82;3.05;;;;;;;;;;5052161;28;20029;-59
2021/09/12 11:59:42;;;;;;;3.92;2.78;;;;;;;;;;5045447;28;20040;-59
2021/09/12 12:02:16;;;;;;;6.15;3.22;;;;;;;;;;5050325;28;20028;-59
2021/09/12 12:04:44;;;;;;;4.20;3.28;;;;;;;;;;5048224;28;20457;-59
2021/09/12 12:07:10;;;;;;;6.05;3.38;;;;;;;;;;5046371;28;20025;-59
2021/09/12 12:09:47;;;;;;;4.30;2.95;;;;;;;;;;5047074;28;20039;-59
2021/09/12 12:12:14;;;;;;;5.15;2.97;;;;;;;;;;5050337;28;20025;-58
2021/09/12 12:14:58;;;;;;;4.88;2.92;;;;;;;;;;5044929;28;20044;-59
2021/09/12 12:17:25;;;;;;;4.40;2.95;;;;;;;;;;5047407;28;20081;-59
2021/09/12 12:19:52;;;;;;;4.03;3.42;;;;;;;;;;5052912;28;20027;-59
2021/09/12 12:22:19;;;;;;;3.63;2.75;;;;;;;;;;5048011;28;20051;-59
2021/09/12 12:24:46;;;;;;;5.00;3.15;;;;;;;;;;5045467;28;20041;-59
2021/09/12 12:27:17;;;;;;;3.83;2.90;;;;;;;;;;5043994;28;20415;-59
2021/09/12 12:29:45;;;;;;;6.78;3.35;;;;;;;;;;5048287;28;20017;-59
2021/09/12 12:32:13;;;;;;;5.13;3.05;;;;;;;;;;5047491;28;20025;-59
2021/09/12 12:34:48;;;;;;;2.90;2.60;;;;;;;;;;5046045;28;20032;-59
2021/09/12 12:37:15;;;;;;;3.72;2.72;;;;;;;;;;5047409;28;20068;-59
2021/09/12 12:39:42;;;;;;;6.53;3.08;;;;;;;;;;5049845;28;20501;-59
2021/09/12 12:42:08;;;;;;;4.10;2.65;;;;;;;;;;5046720;28;20028;-59
2021/09/12 12:44:44;;;;;;;3.45;2.58;;;;;;;;;;5048213;28;20079;-59
2021/09/12 12:47:11;;;;;;;3.88;2.90;;;;;;;;;;5051403;28;20017;-59
2021/09/12 12:49:37;;;;;;;4.00;3.20;;;;;;;;;;5050877;28;20067;-59
2021/09/12 12:52:10;;;;;;;3.65;2.88;;;;;;;;;;5049280;28;20055;-59
2021/09/12 12:54:38;;;;;;;3.22;2.80;;;;;;;;;;5045174;28;20085;-59
2021/09/12 12:57:08;;;;;;;3.90;3.05;;;;;;;;;;5049169;28;20609;-59
2021/09/12 12:59:34;;;;;;;4.88;2.67;;;;;;;;;;5047461;28;20043;-60
2021/09/12 13:02:00;;;;;;;3.67;2.60;;;;;;;;;;5049463;28;20108;-57
2021/09/12 13:04:25;;;;;;;2.75;2.45;;;;;;;;;;5044925;28;20170;-57
2021/09/12 13:06:51;;;;;;;3.30;2.60;;;;;;;;;;5048100;28;20025;-59
2021/09/12 13:09:16;;;;;;;4.00;2.75;;;;;;;;;;5054345;28;20029;-59
2021/09/12 13:11:44;;;;;;;3.05;2.50;;;;;;;;;;5056302;28;20567;-59
2021/09/12 13:14:10;;;;;;;5.37;2.40;;;;;;;;;;5049348;28;20040;-59
2021/09/12 13:16:36;;;;;;;3.35;2.47;;;;;;;;;;5050787;28;20036;-59
2021/09/12 13:19:01;;;;;;;3.60;2.63;;;;;;;;;;5048402;28;20033;-59
2021/09/12 13:21:27;;;;;;;2.92;2.58;;;;;;;;;;5047559;28;20025;-59
2021/09/12 13:23:52;;;;;;;5.15;2.90;;;;;;;;;;5050436;28;20025;-59
2021/09/12 13:26:18;;;;;;;4.80;2.92;;;;;;;;;;5049654;28;20483;-59
2021/09/12 13:28:43;;;;;;;6.43;2.75;;;;;;;;;;5051196;28;20051;-59
2021/09/12 13:31:08;;;;;;;4.78;2.42;;;;;;;;;;5049597;28;20029;-59
2021/09/12 13:33:34;;;;;;;2.90;2.60;;;;;;;;;;5048672;28;20037;-59
2021/09/12 13:36:00;;;;;;;3.35;2.35;;;;;;;;;;5050032;28;20031;-59
2021/09/12 13:38:26;;;;;;;2.78;2.45;;;;;;;;;;5055362;28;20029;-59
2021/09/12 13:40:52;;;;;;;3.50;2.22;;;;;;;;;;5049316;28;20107;-59
2021/09/12 13:43:18;;;;;;;5.03;2.40;;;;;;;;;;5050030;28;20360;-59
2021/09/12 13:45:43;;;;;;;4.47;2.65;;;;;;;;;;5054336;28;20036;-59
2021/09/12 13:48:09;;;;;;;4.28;2.67;;;;;;;;;;5047698;28;20036;-59
2021/09/12 13:50:34;;;;;;;3.53;2.50;;;;;;;;;;5051505;28;20043;-59
2021/09/12 13:53:00;;;;;;;3.33;2.65;;;;;;;;;;5049505;28;20025;-59
2021/09/12 13:55:26;;;;;;;2.80;2.13;;;;;;;;;;5050328;28;20060;-59
2021/09/12 13:57:51;;;;;;;2.63;2.25;;;;;;;;;;5053894;28;20052;-59
2021/09/12 14:00:17;;;;;;;4.32;2.42;;;;;;;;;;5054367;28;20047;-59
2021/09/12 14:02:42;;;;;;;2.95;2.55;;;;;;;;;;5048398;28;20025;-59
2021/09/12 14:05:09;;;;;;;5.20;2.60;;;;;;;;;;5055011;28;20100;-59
2021/09/12 14:07:35;;;;;;;2.50;2.30;;;;;;;;;;5054650;28;20106;-59
2021/09/12 14:10:02;;;;;;;3.15;2.60;;;;;;;;;;5055929;28;20490;-59
2021/09/12 14:12:27;;;;;;;6.32;2.38;;;;;;;;;;5053845;28;20020;-59
2021/09/12 14:14:53;;;;;;;3.78;2.78;;;;;;;;;;5048241;28;20103;-59
2021/09/12 14:17:18;;;;;;;2.92;2.20;;;;;;;;;;5051871;28;20477;-59
2021/09/12 14:19:44;;;;;;;3.08;2.38;;;;;;;;;;5049944;28;20060;-59
2021/09/12 14:22:09;;;;;;;3.45;2.75;;;;;;;;;;5049043;28;20044;-59
2021/09/12 14:24:35;;;;;;;3.05;2.60;;;;;;;;;;5046961;28;20032;-59
2021/09/12 14:27:00;;;;;;;4.35;2.75;;;;;;;;;;5047441;28;20476;-59
2021/09/12 14:29:26;;;;;;;4.40;2.75;;;;;;;;;;5051254;28;20497;-59
2021/09/12 14:31:51;;;;;;;4.25;2.63;;;;;;;;;;5050960;28;20097;-59
2021/09/12 14:34:17;;;;;;;3.78;2.65;;;;;;;;;;5047129;28;20056;-59
2021/09/12 14:36:42;;;;;;;3.85;2.60;;;;;;;;;;5050116;28;20017;-59
2021/09/12 14:39:08;;;;;;;4.25;3.33;;;;;;;;;;5049818;28;20032;-59